ICEPW LIRZ-LIRZ
Flight info
| Callsign | ICEPW |
|---|---|
| Flight time | 1h 16m |
| Altitude | 5500 |
| Route | CANNARA DCT BEVAGNA DCT SPOLETO DCT PIEDILUCO DCT LIAA DCT TODI DCT MAGIONE DCT CORCIANO |
| Aircraft | C152/L-SYG/S |
Departure
| Time | 2026-04-27 21:00 |
|---|---|
| Airport | Perugia San Francesco d'Assisi – Umbria International Airport (LIRZ) |
Arrival
| Time | 2026-04-27 22:17 |
|---|---|
| Airport | Perugia San Francesco d'Assisi – Umbria International Airport (LIRZ) |
| Time | Latitude | Longitude | Altitude | Speed | Heading |
|---|---|---|---|---|---|
| 2026-04-27 20:45 | 43.09840 | 12.50286 | 663 ft | 0 kts | 274° |
| 2026-04-27 20:51 | 43.09840 | 12.50285 | 663 ft | 1 kts | 266° |
| 2026-04-27 20:52 | 43.09829 | 12.50286 | 663 ft | 6 kts | 140° |
| 2026-04-27 20:52 | 43.09807 | 12.50314 | 663 ft | 2 kts | 115° |
| 2026-04-27 20:52 | 43.09802 | 12.50340 | 663 ft | 0 kts | 129° |
| 2026-04-27 20:52 | 43.09801 | 12.50340 | 663 ft | 3 kts | 162° |
| 2026-04-27 20:53 | 43.09748 | 12.50342 | 663 ft | 12 kts | 182° |
| 2026-04-27 20:53 | 43.09667 | 12.50358 | 663 ft | 12 kts | 161° |
| 2026-04-27 20:53 | 43.09637 | 12.50389 | 663 ft | 5 kts | 95° |
| 2026-04-27 20:53 | 43.09615 | 12.50414 | 663 ft | 8 kts | 163° |
| 2026-04-27 20:54 | 43.09450 | 12.50490 | 663 ft | 14 kts | 157° |
| 2026-04-27 20:54 | 43.09357 | 12.50554 | 663 ft | 17 kts | 151° |
| 2026-04-27 20:54 | 43.09261 | 12.50633 | 663 ft | 15 kts | 149° |
| 2026-04-27 20:55 | 43.09172 | 12.50712 | 663 ft | 14 kts | 152° |
| 2026-04-27 20:55 | 43.09101 | 12.50795 | 663 ft | 13 kts | 131° |
| 2026-04-27 20:55 | 43.09053 | 12.50917 | 663 ft | 16 kts | 105° |
| 2026-04-27 20:55 | 43.09046 | 12.50949 | 663 ft | 0 kts | 104° |
| 2026-04-27 20:56 | 43.09047 | 12.50949 | 663 ft | 0 kts | 104° |
| 2026-04-27 20:58 | 43.09040 | 12.50979 | 663 ft | 11 kts | 104° |
| 2026-04-27 20:58 | 43.09022 | 12.51092 | 664 ft | 8 kts | 84° |
| 2026-04-27 20:59 | 43.09034 | 12.51127 | 664 ft | 1 kts | 38° |
| 2026-04-27 20:59 | 43.09065 | 12.51139 | 664 ft | 20 kts | 14° |
| 2026-04-27 20:59 | 43.09364 | 12.51244 | 666 ft | 66 kts | 13° |
| 2026-04-27 20:59 | 43.09842 | 12.51421 | 787 ft | 74 kts | 14° |
| 2026-04-27 21:00 | 43.10359 | 12.51600 | 932 ft | 77 kts | 12° |
| 2026-04-27 21:00 | 43.10885 | 12.51788 | 1103 ft | 80 kts | 12° |
| 2026-04-27 21:00 | 43.11411 | 12.52002 | 1338 ft | 74 kts | 29° |
| 2026-04-27 21:00 | 43.11620 | 12.52672 | 1448 ft | 87 kts | 90° |
| 2026-04-27 21:01 | 43.11362 | 12.53420 | 1624 ft | 83 kts | 136° |
| 2026-04-27 21:01 | 43.11049 | 12.53752 | 1799 ft | 77 kts | 151° |
| 2026-04-27 21:03 | 43.10912 | 12.53865 | 1872 ft | 78 kts | 152° |
| 2026-04-27 21:03 | 43.10417 | 12.54274 | 1952 ft | 91 kts | 149° |
| 2026-04-27 21:03 | 43.09875 | 12.54735 | 2170 ft | 83 kts | 151° |
| 2026-04-27 21:04 | 43.09421 | 12.55102 | 2464 ft | 74 kts | 154° |
| 2026-04-27 21:04 | 43.08981 | 12.55463 | 2694 ft | 72 kts | 146° |
| 2026-04-27 21:04 | 43.08585 | 12.55806 | 2907 ft | 66 kts | 152° |
| 2026-04-27 21:04 | 43.08172 | 12.56164 | 3083 ft | 70 kts | 150° |
| 2026-04-27 21:05 | 43.07785 | 12.56515 | 3324 ft | 68 kts | 147° |
| 2026-04-27 21:05 | 43.07381 | 12.56872 | 3535 ft | 67 kts | 150° |
| 2026-04-27 21:05 | 43.06943 | 12.57220 | 3634 ft | 82 kts | 155° |
| 2026-04-27 21:05 | 43.06345 | 12.57519 | 3528 ft | 108 kts | 167° |
| 2026-04-27 21:06 | 43.05663 | 12.57749 | 3740 ft | 92 kts | 176° |
| 2026-04-27 21:06 | 43.05056 | 12.57849 | 3949 ft | 85 kts | 178° |
| 2026-04-27 21:06 | 43.04484 | 12.57912 | 4117 ft | 81 kts | 178° |
| 2026-04-27 21:06 | 43.03931 | 12.58001 | 4312 ft | 79 kts | 175° |
| 2026-04-27 21:07 | 43.03391 | 12.58144 | 4506 ft | 78 kts | 173° |
| 2026-04-27 21:07 | 43.02859 | 12.58281 | 4705 ft | 77 kts | 178° |
| 2026-04-27 21:07 | 43.02337 | 12.58294 | 4871 ft | 75 kts | 186° |
| 2026-04-27 21:07 | 43.01829 | 12.58301 | 5041 ft | 75 kts | 184° |
| 2026-04-27 21:08 | 43.01312 | 12.58287 | 5197 ft | 74 kts | 185° |
| 2026-04-27 21:08 | 43.00797 | 12.58293 | 5365 ft | 74 kts | 183° |
| 2026-04-27 21:08 | 43.00233 | 12.58312 | 5408 ft | 87 kts | 182° |
| 2026-04-27 21:08 | 42.99596 | 12.58339 | 5414 ft | 96 kts | 179° |
| 2026-04-27 21:09 | 42.98912 | 12.58388 | 5417 ft | 99 kts | 182° |
| 2026-04-27 21:09 | 42.98228 | 12.58401 | 5443 ft | 100 kts | 175° |
| 2026-04-27 21:09 | 42.97626 | 12.58708 | 5494 ft | 79 kts | 145° |
| 2026-04-27 21:09 | 42.97338 | 12.59322 | 5356 ft | 78 kts | 107° |
| 2026-04-27 21:10 | 42.97161 | 12.60035 | 5181 ft | 81 kts | 114° |
| 2026-04-27 21:10 | 42.96930 | 12.60752 | 5004 ft | 82 kts | 116° |
| 2026-04-27 21:10 | 42.96687 | 12.61442 | 4857 ft | 79 kts | 117° |
| 2026-04-27 21:10 | 42.96438 | 12.62126 | 4684 ft | 81 kts | 115° |
| 2026-04-27 21:11 | 42.96250 | 12.62856 | 4488 ft | 82 kts | 108° |
| 2026-04-27 21:11 | 42.96099 | 12.63600 | 4305 ft | 81 kts | 102° |
| 2026-04-27 21:11 | 42.95976 | 12.64339 | 4153 ft | 79 kts | 108° |
| 2026-04-27 21:11 | 42.95813 | 12.65043 | 3931 ft | 79 kts | 110° |
| 2026-04-27 21:12 | 42.95614 | 12.65737 | 3771 ft | 79 kts | 112° |
| 2026-04-27 21:12 | 42.95409 | 12.66418 | 3583 ft | 77 kts | 117° |
| 2026-04-27 21:12 | 42.95139 | 12.67076 | 3427 ft | 79 kts | 121° |
| 2026-04-27 21:12 | 42.94868 | 12.67735 | 3262 ft | 79 kts | 118° |
| 2026-04-27 21:13 | 42.94578 | 12.68367 | 3100 ft | 79 kts | 128° |
| 2026-04-27 21:13 | 42.94227 | 12.68946 | 2909 ft | 80 kts | 134° |
| 2026-04-27 21:13 | 42.93952 | 12.69604 | 2721 ft | 80 kts | 107° |
| 2026-04-27 21:13 | 42.93658 | 12.70243 | 2476 ft | 84 kts | 122° |
| 2026-04-27 21:14 | 42.93450 | 12.70945 | 2252 ft | 84 kts | 105° |
| 2026-04-27 21:14 | 42.93378 | 12.71469 | 2120 ft | 80 kts | 92° |
| 2026-04-27 21:14 | 42.93656 | 12.72008 | 1896 ft | 81 kts | 13° |
| 2026-04-27 21:14 | 42.94186 | 12.72017 | 1736 ft | 73 kts | 349° |
| 2026-04-27 21:15 | 42.94652 | 12.71813 | 1560 ft | 69 kts | 317° |
| 2026-04-27 21:15 | 42.94635 | 12.71229 | 1282 ft | 77 kts | 223° |
| 2026-04-27 21:15 | 42.94162 | 12.71085 | 1096 ft | 66 kts | 210° |
| 2026-04-27 21:15 | 42.93711 | 12.71146 | 731 ft | 63 kts | 176° |
| 2026-04-27 21:16 | 42.93371 | 12.71219 | 702 ft | 37 kts | 170° |
| 2026-04-27 21:16 | 42.93172 | 12.71259 | 706 ft | 23 kts | 172° |
| 2026-04-27 21:16 | 42.93032 | 12.71284 | 699 ft | 23 kts | 171° |
| 2026-04-27 21:16 | 42.92750 | 12.71343 | 727 ft | 51 kts | 171° |
| 2026-04-27 21:17 | 42.92384 | 12.71322 | 863 ft | 51 kts | 205° |
| 2026-04-27 21:17 | 42.92069 | 12.71062 | 1010 ft | 54 kts | 214° |
| 2026-04-27 21:17 | 42.91843 | 12.70706 | 1167 ft | 52 kts | 257° |
| 2026-04-27 21:17 | 42.91881 | 12.70167 | 1304 ft | 63 kts | 281° |
| 2026-04-27 21:18 | 42.91993 | 12.69568 | 1496 ft | 66 kts | 281° |
| 2026-04-27 21:18 | 42.92010 | 12.68947 | 1718 ft | 66 kts | 273° |
| 2026-04-27 21:18 | 42.92081 | 12.68333 | 1916 ft | 65 kts | 285° |
| 2026-04-27 21:18 | 42.92256 | 12.67752 | 2128 ft | 67 kts | 291° |
| 2026-04-27 21:19 | 42.92328 | 12.67133 | 2344 ft | 68 kts | 261° |
| 2026-04-27 21:19 | 42.92206 | 12.66542 | 2513 ft | 71 kts | 245° |
| 2026-04-27 21:19 | 42.91860 | 12.66070 | 2734 ft | 66 kts | 206° |
| 2026-04-27 21:20 | 42.90933 | 12.65702 | 3215 ft | 69 kts | 198° |
| 2026-04-27 21:20 | 42.90429 | 12.65707 | 3362 ft | 74 kts | 164° |
| 2026-04-27 21:20 | 42.89950 | 12.65947 | 3605 ft | 74 kts | 159° |
| 2026-04-27 21:20 | 42.89491 | 12.66231 | 3774 ft | 74 kts | 156° |
| 2026-04-27 21:21 | 42.89047 | 12.66608 | 3971 ft | 75 kts | 143° |
| 2026-04-27 21:21 | 42.88638 | 12.67049 | 4143 ft | 77 kts | 149° |
| 2026-04-27 21:21 | 42.88163 | 12.67380 | 4320 ft | 81 kts | 158° |
| 2026-04-27 21:21 | 42.87639 | 12.67689 | 4442 ft | 83 kts | 164° |
| 2026-04-27 21:22 | 42.87090 | 12.67974 | 4569 ft | 86 kts | 163° |
| 2026-04-27 21:22 | 42.86514 | 12.68238 | 4702 ft | 87 kts | 167° |
| 2026-04-27 21:22 | 42.85922 | 12.68470 | 4838 ft | 90 kts | 167° |
| 2026-04-27 21:22 | 42.85313 | 12.68678 | 4970 ft | 91 kts | 172° |
| 2026-04-27 21:23 | 42.84698 | 12.68840 | 5100 ft | 92 kts | 169° |
| 2026-04-27 21:23 | 42.84076 | 12.69042 | 5226 ft | 91 kts | 170° |
| 2026-04-27 21:23 | 42.83460 | 12.69248 | 5358 ft | 91 kts | 169° |
| 2026-04-27 21:23 | 42.82815 | 12.69462 | 5401 ft | 100 kts | 171° |
| 2026-04-27 21:24 | 42.82115 | 12.69691 | 5413 ft | 105 kts | 167° |
| 2026-04-27 21:24 | 42.81426 | 12.69957 | 5404 ft | 101 kts | 167° |
| 2026-04-27 21:24 | 42.80761 | 12.70227 | 5403 ft | 99 kts | 164° |
| 2026-04-27 21:24 | 42.80104 | 12.70502 | 5397 ft | 97 kts | 167° |
| 2026-04-27 21:25 | 42.79453 | 12.70758 | 5394 ft | 97 kts | 168° |
| 2026-04-27 21:25 | 42.78807 | 12.71014 | 5395 ft | 97 kts | 165° |
| 2026-04-27 21:25 | 42.78170 | 12.71312 | 5392 ft | 97 kts | 162° |
| 2026-04-27 21:25 | 42.77537 | 12.71626 | 5391 ft | 95 kts | 161° |
| 2026-04-27 21:26 | 42.77123 | 12.72118 | 5281 ft | 82 kts | 99° |
| 2026-04-27 21:26 | 42.77285 | 12.72817 | 5083 ft | 77 kts | 43° |
| 2026-04-27 21:26 | 42.77778 | 12.73098 | 4854 ft | 79 kts | 8° |
| 2026-04-27 21:26 | 42.78301 | 12.73102 | 4653 ft | 78 kts | 353° |
| 2026-04-27 21:27 | 42.78831 | 12.72991 | 4465 ft | 74 kts | 346° |
| 2026-04-27 21:27 | 42.79364 | 12.72944 | 4193 ft | 83 kts | 4° |
| 2026-04-27 21:27 | 42.79915 | 12.72950 | 4028 ft | 77 kts | 359° |
| 2026-04-27 21:27 | 42.80450 | 12.72897 | 3790 ft | 77 kts | 352° |
| 2026-04-27 21:28 | 42.80976 | 12.72835 | 3627 ft | 78 kts | 355° |
| 2026-04-27 21:28 | 42.81515 | 12.72781 | 3443 ft | 79 kts | 354° |
| 2026-04-27 21:28 | 42.82042 | 12.72763 | 3294 ft | 75 kts | 359° |
| 2026-04-27 21:28 | 42.82550 | 12.72783 | 3085 ft | 73 kts | 7° |
| 2026-04-27 21:29 | 42.83058 | 12.73109 | 2772 ft | 77 kts | 358° |
| 2026-04-27 21:29 | 42.83582 | 12.73045 | 2584 ft | 78 kts | 352° |
| 2026-04-27 21:29 | 42.84121 | 12.72975 | 2450 ft | 75 kts | 350° |
| 2026-04-27 21:29 | 42.84624 | 12.72907 | 2301 ft | 72 kts | 351° |
| 2026-04-27 21:30 | 42.85138 | 12.72811 | 2107 ft | 74 kts | 348° |
| 2026-04-27 21:30 | 42.85647 | 12.72708 | 1931 ft | 74 kts | 349° |
| 2026-04-27 21:30 | 42.86162 | 12.72591 | 1714 ft | 76 kts | 345° |
| 2026-04-27 21:30 | 42.86667 | 12.72458 | 1518 ft | 73 kts | 350° |
| 2026-04-27 21:31 | 42.87179 | 12.72385 | 1313 ft | 73 kts | 352° |
| 2026-04-27 21:31 | 42.87660 | 12.72260 | 1165 ft | 67 kts | 338° |
| 2026-04-27 21:31 | 42.88013 | 12.71884 | 988 ft | 67 kts | 310° |
| 2026-04-27 21:31 | 42.88381 | 12.71482 | 824 ft | 67 kts | 324° |
| 2026-04-27 21:32 | 42.88613 | 12.71007 | 1022 ft | 59 kts | 258° |
| 2026-04-27 21:32 | 42.88315 | 12.70601 | 1201 ft | 65 kts | 209° |
| 2026-04-27 21:32 | 42.87884 | 12.70388 | 1386 ft | 70 kts | 200° |
| 2026-04-27 21:32 | 42.87399 | 12.70150 | 1551 ft | 77 kts | 205° |
| 2026-04-27 21:33 | 42.86890 | 12.69843 | 1716 ft | 82 kts | 208° |
| 2026-04-27 21:33 | 42.86380 | 12.69469 | 1876 ft | 84 kts | 213° |
| 2026-04-27 21:33 | 42.85879 | 12.69030 | 2031 ft | 88 kts | 217° |
| 2026-04-27 21:33 | 42.85381 | 12.68548 | 2174 ft | 88 kts | 219° |
| 2026-04-27 21:34 | 42.84893 | 12.68016 | 2318 ft | 91 kts | 222° |
| 2026-04-27 21:34 | 42.84379 | 12.67731 | 2477 ft | 79 kts | 167° |
| 2026-04-27 21:34 | 42.83841 | 12.68023 | 2598 ft | 87 kts | 153° |
| 2026-04-27 21:34 | 42.83313 | 12.68447 | 2736 ft | 91 kts | 148° |
| 2026-04-27 21:35 | 42.82771 | 12.68907 | 2872 ft | 92 kts | 152° |
| 2026-04-27 21:35 | 42.82211 | 12.69322 | 2999 ft | 92 kts | 153° |
| 2026-04-27 21:35 | 42.81634 | 12.69715 | 3135 ft | 94 kts | 158° |
| 2026-04-27 21:35 | 42.81035 | 12.70077 | 3268 ft | 95 kts | 158° |
| 2026-04-27 21:36 | 42.80453 | 12.70505 | 3403 ft | 96 kts | 143° |
| 2026-04-27 21:36 | 42.79921 | 12.71058 | 3533 ft | 97 kts | 147° |
| 2026-04-27 21:36 | 42.79361 | 12.71580 | 3652 ft | 96 kts | 146° |
| 2026-04-27 21:36 | 42.78832 | 12.72119 | 3788 ft | 96 kts | 146° |
| 2026-04-27 21:37 | 42.78263 | 12.72602 | 3912 ft | 97 kts | 154° |
| 2026-04-27 21:37 | 42.77658 | 12.73006 | 4040 ft | 97 kts | 159° |
| 2026-04-27 21:37 | 42.77031 | 12.73336 | 4167 ft | 95 kts | 161° |
| 2026-04-27 21:37 | 42.76404 | 12.73604 | 4289 ft | 95 kts | 171° |
| 2026-04-27 21:38 | 42.75752 | 12.73744 | 4414 ft | 95 kts | 175° |
| 2026-04-27 21:38 | 42.75094 | 12.73793 | 4538 ft | 95 kts | 182° |
| 2026-04-27 21:38 | 42.74444 | 12.73720 | 4663 ft | 93 kts | 191° |
| 2026-04-27 21:38 | 42.73803 | 12.73564 | 4788 ft | 94 kts | 194° |
| 2026-04-27 21:39 | 42.73157 | 12.73386 | 4921 ft | 96 kts | 194° |
| 2026-04-27 21:39 | 42.72493 | 12.73200 | 5044 ft | 97 kts | 195° |
| 2026-04-27 21:39 | 42.71839 | 12.73025 | 5181 ft | 97 kts | 190° |
| 2026-04-27 21:39 | 42.71177 | 12.72951 | 5298 ft | 95 kts | 182° |
| 2026-04-27 21:40 | 42.70528 | 12.73014 | 5390 ft | 95 kts | 174° |
| 2026-04-27 21:40 | 42.69832 | 12.73163 | 5406 ft | 105 kts | 172° |
| 2026-04-27 21:40 | 42.69109 | 12.73339 | 5408 ft | 106 kts | 170° |
| 2026-04-27 21:40 | 42.68379 | 12.73522 | 5408 ft | 107 kts | 173° |
| 2026-04-27 21:41 | 42.67639 | 12.73661 | 5407 ft | 107 kts | 175° |
| 2026-04-27 21:41 | 42.66875 | 12.73747 | 5401 ft | 112 kts | 177° |
| 2026-04-27 21:41 | 42.66108 | 12.73827 | 5403 ft | 110 kts | 177° |
| 2026-04-27 21:41 | 42.65387 | 12.73945 | 5398 ft | 103 kts | 171° |
| 2026-04-27 21:42 | 42.64690 | 12.74119 | 5387 ft | 101 kts | 173° |
| 2026-04-27 21:42 | 42.64001 | 12.74239 | 5387 ft | 99 kts | 174° |
| 2026-04-27 21:42 | 42.63321 | 12.74339 | 5405 ft | 98 kts | 177° |
| 2026-04-27 21:42 | 42.62621 | 12.74392 | 5394 ft | 99 kts | 184° |
| 2026-04-27 21:43 | 42.61934 | 12.74308 | 5395 ft | 101 kts | 190° |
| 2026-04-27 21:43 | 42.61256 | 12.74155 | 5386 ft | 97 kts | 201° |
| 2026-04-27 21:43 | 42.60631 | 12.73814 | 5394 ft | 95 kts | 220° |
| 2026-04-27 21:43 | 42.60128 | 12.73260 | 5392 ft | 93 kts | 226° |
| 2026-04-27 21:44 | 42.59759 | 12.72569 | 5393 ft | 90 kts | 246° |
| 2026-04-27 21:44 | 42.59521 | 12.71785 | 5391 ft | 89 kts | 249° |
| 2026-04-27 21:44 | 42.59269 | 12.70991 | 5399 ft | 93 kts | 246° |
| 2026-04-27 21:44 | 42.58972 | 12.70215 | 5395 ft | 94 kts | 237° |
| 2026-04-27 21:45 | 42.58580 | 12.69517 | 5404 ft | 93 kts | 231° |
| 2026-04-27 21:45 | 42.58168 | 12.68819 | 5400 ft | 94 kts | 238° |
| 2026-04-27 21:45 | 42.57851 | 12.68044 | 5406 ft | 94 kts | 251° |
| 2026-04-27 21:45 | 42.57675 | 12.67184 | 5408 ft | 96 kts | 256° |
| 2026-04-27 21:46 | 42.57512 | 12.66311 | 5402 ft | 95 kts | 260° |
| 2026-04-27 21:46 | 42.57402 | 12.65455 | 5399 ft | 85 kts | 262° |
| 2026-04-27 21:46 | 42.57331 | 12.64735 | 5245 ft | 77 kts | 264° |
| 2026-04-27 21:46 | 42.57292 | 12.63957 | 5336 ft | 83 kts | 280° |
| 2026-04-27 21:47 | 42.57450 | 12.63180 | 5399 ft | 90 kts | 287° |
| 2026-04-27 21:47 | 42.57646 | 12.62339 | 5405 ft | 98 kts | 291° |
| 2026-04-27 21:47 | 42.57908 | 12.61463 | 5410 ft | 101 kts | 294° |
| 2026-04-27 21:47 | 42.58238 | 12.60608 | 5413 ft | 102 kts | 301° |
| 2026-04-27 21:48 | 42.58652 | 12.59817 | 5406 ft | 104 kts | 307° |
| 2026-04-27 21:48 | 42.59117 | 12.59065 | 5407 ft | 104 kts | 315° |
| 2026-04-27 21:48 | 42.59640 | 12.58392 | 5410 ft | 106 kts | 314° |
| 2026-04-27 21:48 | 42.60153 | 12.57672 | 5409 ft | 106 kts | 317° |
| 2026-04-27 21:49 | 42.60709 | 12.57011 | 5408 ft | 106 kts | 324° |
| 2026-04-27 21:49 | 42.61337 | 12.56480 | 5407 ft | 107 kts | 333° |
| 2026-04-27 21:49 | 42.61994 | 12.56044 | 5391 ft | 101 kts | 332° |
| 2026-04-27 21:49 | 42.62594 | 12.55638 | 5387 ft | 92 kts | 333° |
| 2026-04-27 21:50 | 42.63152 | 12.55300 | 5393 ft | 85 kts | 336° |
| 2026-04-27 21:50 | 42.63725 | 12.54969 | 5390 ft | 96 kts | 334° |
| 2026-04-27 21:50 | 42.64351 | 12.54548 | 5410 ft | 104 kts | 330° |
| 2026-04-27 21:50 | 42.64979 | 12.54067 | 5410 ft | 105 kts | 327° |
| 2026-04-27 21:51 | 42.65601 | 12.53550 | 5414 ft | 103 kts | 326° |
| 2026-04-27 21:51 | 42.66219 | 12.53019 | 5406 ft | 107 kts | 326° |
| 2026-04-27 21:51 | 42.66845 | 12.52466 | 5407 ft | 107 kts | 324° |
| 2026-04-27 21:51 | 42.67455 | 12.51903 | 5409 ft | 106 kts | 324° |
| 2026-04-27 21:52 | 42.68059 | 12.51335 | 5397 ft | 105 kts | 323° |
| 2026-04-27 21:52 | 42.68643 | 12.50753 | 5406 ft | 105 kts | 322° |
| 2026-04-27 21:52 | 42.69221 | 12.50145 | 5402 ft | 104 kts | 320° |
| 2026-04-27 21:52 | 42.69787 | 12.49513 | 5401 ft | 106 kts | 319° |
| 2026-04-27 21:53 | 42.70358 | 12.48894 | 5408 ft | 104 kts | 320° |
| 2026-04-27 21:53 | 42.70952 | 12.48300 | 5397 ft | 105 kts | 324° |
| 2026-04-27 21:53 | 42.71553 | 12.47754 | 5399 ft | 106 kts | 326° |
| 2026-04-27 21:53 | 42.72179 | 12.47211 | 5404 ft | 106 kts | 326° |
| 2026-04-27 21:54 | 42.72795 | 12.46675 | 5397 ft | 107 kts | 326° |
| 2026-04-27 21:54 | 42.73420 | 12.46121 | 5408 ft | 108 kts | 325° |
| 2026-04-27 21:54 | 42.74049 | 12.45551 | 5405 ft | 109 kts | 324° |
| 2026-04-27 21:54 | 42.74667 | 12.44987 | 5401 ft | 105 kts | 326° |
| 2026-04-27 21:55 | 42.75290 | 12.44456 | 5404 ft | 107 kts | 326° |
| 2026-04-27 21:55 | 42.75919 | 12.43910 | 5404 ft | 107 kts | 325° |
| 2026-04-27 21:55 | 42.76541 | 12.43350 | 5398 ft | 106 kts | 324° |
| 2026-04-27 21:55 | 42.77151 | 12.42787 | 5402 ft | 107 kts | 323° |
| 2026-04-27 21:56 | 42.77760 | 12.42199 | 5405 ft | 108 kts | 323° |
| 2026-04-27 21:56 | 42.78984 | 12.41040 | 5400 ft | 106 kts | 327° |
| 2026-04-27 21:56 | 42.79639 | 12.40586 | 5402 ft | 106 kts | 335° |
| 2026-04-27 21:57 | 42.80314 | 12.40214 | 5397 ft | 105 kts | 335° |
| 2026-04-27 21:57 | 42.80995 | 12.39823 | 5402 ft | 107 kts | 335° |
| 2026-04-27 21:57 | 42.81676 | 12.39415 | 5401 ft | 107 kts | 334° |
| 2026-04-27 21:57 | 42.82357 | 12.38985 | 5401 ft | 108 kts | 333° |
| 2026-04-27 21:58 | 42.83031 | 12.38533 | 5400 ft | 107 kts | 330° |
| 2026-04-27 21:58 | 42.83684 | 12.38043 | 5408 ft | 108 kts | 329° |
| 2026-04-27 21:58 | 42.84341 | 12.37540 | 5403 ft | 109 kts | 329° |
| 2026-04-27 21:58 | 42.84997 | 12.37026 | 5405 ft | 108 kts | 328° |
| 2026-04-27 21:59 | 42.85655 | 12.36532 | 5404 ft | 108 kts | 334° |
| 2026-04-27 21:59 | 42.86340 | 12.36102 | 5403 ft | 109 kts | 333° |
| 2026-04-27 21:59 | 42.87021 | 12.35665 | 5402 ft | 108 kts | 333° |
| 2026-04-27 21:59 | 42.87694 | 12.35220 | 5403 ft | 107 kts | 333° |
| 2026-04-27 22:00 | 42.88377 | 12.34819 | 5403 ft | 108 kts | 335° |
| 2026-04-27 22:00 | 42.89064 | 12.34421 | 5402 ft | 107 kts | 335° |
| 2026-04-27 22:00 | 42.89742 | 12.34025 | 5405 ft | 107 kts | 335° |
| 2026-04-27 22:00 | 42.90430 | 12.33620 | 5400 ft | 108 kts | 335° |
| 2026-04-27 22:01 | 42.91123 | 12.33226 | 5400 ft | 108 kts | 339° |
| 2026-04-27 22:01 | 42.91837 | 12.32932 | 5395 ft | 107 kts | 345° |
| 2026-04-27 22:01 | 42.92574 | 12.32745 | 5399 ft | 108 kts | 350° |
| 2026-04-27 22:01 | 42.93318 | 12.32592 | 5402 ft | 109 kts | 348° |
| 2026-04-27 22:02 | 42.94058 | 12.32412 | 5399 ft | 107 kts | 348° |
| 2026-04-27 22:02 | 42.94799 | 12.32243 | 5394 ft | 107 kts | 349° |
| 2026-04-27 22:02 | 42.95533 | 12.32078 | 5401 ft | 107 kts | 349° |
| 2026-04-27 22:02 | 42.96279 | 12.31919 | 5400 ft | 109 kts | 349° |
| 2026-04-27 22:03 | 42.97027 | 12.31763 | 5407 ft | 109 kts | 349° |
| 2026-04-27 22:03 | 42.97780 | 12.31612 | 5405 ft | 109 kts | 350° |
| 2026-04-27 22:03 | 42.98529 | 12.31471 | 5408 ft | 109 kts | 350° |
| 2026-04-27 22:03 | 42.99284 | 12.31336 | 5399 ft | 110 kts | 351° |
| 2026-04-27 22:04 | 42.99785 | 12.31253 | 5403 ft | 109 kts | 351° |
| 2026-04-27 22:04 | 43.00525 | 12.31136 | 5397 ft | 107 kts | 352° |
| 2026-04-27 22:04 | 43.01267 | 12.31029 | 5396 ft | 108 kts | 352° |
| 2026-04-27 22:04 | 43.02263 | 12.30891 | 5408 ft | 109 kts | 353° |
| 2026-04-27 22:05 | 43.03022 | 12.30799 | 5406 ft | 110 kts | 353° |
| 2026-04-27 22:05 | 43.03533 | 12.30742 | 5401 ft | 107 kts | 354° |
| 2026-04-27 22:05 | 43.04272 | 12.30667 | 5393 ft | 106 kts | 354° |
| 2026-04-27 22:05 | 43.05000 | 12.30570 | 5403 ft | 105 kts | 343° |
| 2026-04-27 22:06 | 43.05666 | 12.30194 | 5405 ft | 105 kts | 330° |
| 2026-04-27 22:06 | 43.06310 | 12.29725 | 5408 ft | 107 kts | 331° |
| 2026-04-27 22:06 | 43.06992 | 12.29281 | 5403 ft | 108 kts | 335° |
| 2026-04-27 22:06 | 43.07662 | 12.28839 | 5397 ft | 107 kts | 331° |
| 2026-04-27 22:07 | 43.08323 | 12.28396 | 5397 ft | 106 kts | 333° |
| 2026-04-27 22:07 | 43.08984 | 12.27973 | 5403 ft | 106 kts | 333° |
| 2026-04-27 22:07 | 43.09663 | 12.27557 | 5397 ft | 107 kts | 334° |
| 2026-04-27 22:07 | 43.10345 | 12.27152 | 5396 ft | 107 kts | 335° |
| 2026-04-27 22:08 | 43.11034 | 12.26760 | 5404 ft | 107 kts | 336° |
| 2026-04-27 22:08 | 43.11727 | 12.26378 | 5405 ft | 106 kts | 336° |
| 2026-04-27 22:08 | 43.12409 | 12.26005 | 5400 ft | 105 kts | 336° |
| 2026-04-27 22:08 | 43.13097 | 12.25646 | 5401 ft | 107 kts | 340° |
| 2026-04-27 22:09 | 43.13813 | 12.25444 | 5407 ft | 104 kts | 4° |
| 2026-04-27 22:09 | 43.14464 | 12.25800 | 5422 ft | 98 kts | 73° |
| 2026-04-27 22:09 | 43.14064 | 12.26454 | 5186 ft | 108 kts | 155° |
| 2026-04-27 22:09 | 43.13485 | 12.26999 | 5327 ft | 97 kts | 133° |
| 2026-04-27 22:10 | 43.13042 | 12.27687 | 5398 ft | 100 kts | 135° |
| 2026-04-27 22:10 | 43.12569 | 12.28443 | 5409 ft | 109 kts | 127° |
| 2026-04-27 22:10 | 43.12187 | 12.29297 | 5392 ft | 93 kts | 116° |
| 2026-04-27 22:10 | 43.11948 | 12.30049 | 5253 ft | 84 kts | 115° |
| 2026-04-27 22:11 | 43.11687 | 12.30788 | 5004 ft | 85 kts | 118° |
| 2026-04-27 22:11 | 43.11468 | 12.31519 | 4864 ft | 81 kts | 110° |
| 2026-04-27 22:11 | 43.11261 | 12.32225 | 4658 ft | 81 kts | 111° |
| 2026-04-27 22:11 | 43.11097 | 12.32980 | 4455 ft | 82 kts | 107° |
| 2026-04-27 22:12 | 43.10958 | 12.33719 | 4348 ft | 79 kts | 106° |
| 2026-04-27 22:12 | 43.10850 | 12.34490 | 4188 ft | 84 kts | 101° |
| 2026-04-27 22:12 | 43.10737 | 12.35244 | 4052 ft | 82 kts | 104° |
| 2026-04-27 22:12 | 43.10608 | 12.36001 | 3894 ft | 81 kts | 103° |
| 2026-04-27 22:13 | 43.10504 | 12.36762 | 3703 ft | 82 kts | 99° |
| 2026-04-27 22:13 | 43.10416 | 12.37531 | 3532 ft | 82 kts | 98° |
| 2026-04-27 22:13 | 43.10355 | 12.38305 | 3384 ft | 81 kts | 95° |
| 2026-04-27 22:13 | 43.10310 | 12.39075 | 3253 ft | 81 kts | 97° |
| 2026-04-27 22:14 | 43.10226 | 12.39838 | 3112 ft | 80 kts | 100° |
| 2026-04-27 22:14 | 43.10155 | 12.40597 | 2919 ft | 81 kts | 96° |
| 2026-04-27 22:14 | 43.10101 | 12.41365 | 2690 ft | 82 kts | 97° |
| 2026-04-27 22:14 | 43.10011 | 12.42103 | 2547 ft | 78 kts | 99° |
| 2026-04-27 22:15 | 43.09950 | 12.42851 | 2334 ft | 80 kts | 95° |
| 2026-04-27 22:15 | 43.09889 | 12.43596 | 2126 ft | 78 kts | 98° |
| 2026-04-27 22:15 | 43.09800 | 12.44320 | 1890 ft | 78 kts | 101° |
| 2026-04-27 22:15 | 43.09675 | 12.45058 | 1676 ft | 79 kts | 104° |
| 2026-04-27 22:16 | 43.09561 | 12.45790 | 1477 ft | 78 kts | 98° |
| 2026-04-27 22:16 | 43.09494 | 12.46518 | 1298 ft | 77 kts | 98° |
| 2026-04-27 22:16 | 43.09410 | 12.47238 | 1114 ft | 75 kts | 98° |
| 2026-04-27 22:16 | 43.09372 | 12.47944 | 943 ft | 75 kts | 90° |
| 2026-04-27 22:17 | 43.09375 | 12.48581 | 800 ft | 59 kts | 89° |
| 2026-04-27 22:17 | 43.09374 | 12.49004 | 677 ft | 4 kts | 242° |
| 2026-04-27 22:17 | 43.09374 | 12.49005 | 677 ft | 0 kts | 248° |